Bristol, VA (24202)

9:11 AM EDT on August 26, 2016 (GMT -0400)
| | Change Station
Active Advisory: Special Statement

Elev -9999 ft 0.00 °N, 0.00 °E | Updated

Partly Cloudy
Partly Cloudy
77 °F
Feels Like 77 °F
N
3
Wind Variable Wind from NNE
Gusts mph

Today
High -- | Low -- °F
--% Chance of Precip.
Yesterday
High -- | Low -- °F
Precip. -- in
Pressure 30.23 in
Visibility 10.0 miles
Clouds Clear
Dew Point 69 °F
Humidity 78%
Rainfall --
Snow Depth Not available.
6:55 AM 8:04 PM
Waning Crescent, 34% visible
METAR KVJI 261255Z AUTO 00000KT 10SM CLR 24/23 A3023 RMK AO2 T02390225
Pressure 30.23 in
Visibility 10.0 miles
Clouds Clear
Dew Point 69 °F
Humidity 78%
Rainfall --
Snow Depth Not available.
6:55 AM 8:04 PM
Waning Crescent, 34% visible
METAR KVJI 261255Z AUTO 00000KT 10SM CLR 24/23 A3023 RMK AO2 T02390225

10-Day Weather Forecast

Almanac

Astronomy

Aug. 26, 2016 Rise Set
Actual Time
Civil Twilight
Nautical Twilight
Astronomical Twilight
Moon
Length of Visible Light
Length of Day
Tomorrow will be .
, % of the Moon is Illuminated

Today's Extremes

State Highs State Lows

Community

WunderPhotos

Upload Photos

1,935,084 photos uploaded!

WunderBlog® & News

Nearby

Air Quality

  Air Quality AQ Index Pollutant
Not available.

Snow Depth

Station Depth Elevation

Earthquake Activity

City Distance Mag. Time & Date
Minimum magnitude displayed is 2.5.

Coastal Water Temperatures

Place Temperature

Stations

Nearby Weather Stations

Station Location Temp. Windchill Dew Point Humidity Wind Precip. Elev Updated Type
                   

Watches & Warnings

Special Statement
Issued: 3:32 AM EDT Aug. 26, 2016 – National Weather Service


... Patchy dense fog this morning...

Fog will reduce visibilities to a quarter mile or less in some
spots this morning. The patchy coverage of fog will mean that the
visibility may drop suddenly... so motorists should use caution and
use headlights when passing through dense fog.